createdAt,value
2023-05-11T00:00:04.136Z,543.00
2023-05-11T00:01:04.140Z,543.00
2023-05-11T00:02:04.190Z,542.00
2023-05-11T00:03:04.226Z,541.00
2023-05-11T00:04:04.295Z,541.00
2023-05-11T00:05:04.213Z,538.00
2023-05-11T00:06:04.205Z,537.00
2023-05-11T00:07:04.234Z,539.00
2023-05-11T00:08:04.223Z,539.00
2023-05-11T00:09:04.253Z,542.00
2023-05-11T00:10:04.250Z,544.00
2023-05-11T00:11:04.263Z,545.00
2023-05-11T00:12:04.270Z,546.00
2023-05-11T00:13:04.296Z,545.00
2023-05-11T00:14:04.308Z,545.00
2023-05-11T00:15:04.295Z,543.00
2023-05-11T00:16:04.386Z,544.00
2023-05-11T00:17:04.311Z,544.00
2023-05-11T00:18:04.399Z,546.00
2023-05-11T00:19:04.449Z,545.00
2023-05-11T00:20:04.379Z,546.00
2023-05-11T00:21:04.387Z,545.00
2023-05-11T00:22:04.395Z,545.00
2023-05-11T00:23:04.403Z,544.00
2023-05-11T00:24:04.433Z,544.00
2023-05-11T00:25:04.415Z,543.00
2023-05-11T00:26:04.448Z,542.00
2023-05-11T00:27:04.483Z,542.00
2023-05-11T00:28:04.456Z,540.00
2023-05-11T00:29:04.486Z,540.00
2023-05-11T00:30:04.492Z,537.00
2023-05-11T00:31:04.511Z,538.00
2023-05-11T00:32:04.491Z,538.00
2023-05-11T00:33:04.572Z,536.00
2023-05-11T00:34:04.535Z,533.00
2023-05-11T00:35:04.531Z,534.00
2023-05-11T00:36:04.570Z,536.00
2023-05-11T00:37:04.560Z,537.00
2023-05-11T00:38:04.570Z,536.00
2023-05-11T00:39:04.607Z,538.00
2023-05-11T00:40:04.603Z,538.00
2023-05-11T00:41:04.611Z,537.00
2023-05-11T00:42:04.643Z,534.00
2023-05-11T00:43:04.658Z,533.00
2023-05-11T00:44:04.664Z,533.00
2023-05-11T00:45:04.655Z,534.00
2023-05-11T00:46:04.680Z,535.00
2023-05-11T00:47:04.806Z,536.00
2023-05-11T00:48:04.773Z,534.00
2023-05-11T00:49:04.782Z,532.00
2023-05-11T00:50:04.731Z,530.00
2023-05-11T00:51:04.756Z,533.00
2023-05-11T00:52:04.771Z,534.00
2023-05-11T00:53:04.767Z,533.00
2023-05-11T00:54:04.796Z,536.00
2023-05-11T00:55:04.817Z,535.00
2023-05-11T00:56:04.824Z,534.00
2023-05-11T00:57:04.824Z,534.00
2023-05-11T00:58:04.877Z,535.00
2023-05-11T00:59:04.864Z,533.00
2023-05-11T01:00:04.841Z,533.00
2023-05-11T01:01:04.868Z,532.00
2023-05-11T01:02:04.874Z,535.00
2023-05-11T01:03:04.985Z,534.00
2023-05-11T01:04:04.955Z,535.00
2023-05-11T01:05:04.928Z,536.00
2023-05-11T01:06:04.895Z,534.00
2023-05-11T01:07:04.946Z,532.00
2023-05-11T01:08:04.923Z,533.00
2023-05-11T01:09:04.955Z,533.00
2023-05-11T01:10:04.967Z,534.00
2023-05-11T01:11:05.074Z,533.00
2023-05-11T01:12:05.074Z,533.00
2023-05-11T01:13:05.138Z,532.00
2023-05-11T01:14:05.179Z,532.00
2023-05-11T01:15:05.220Z,531.00
2023-05-11T01:16:05.296Z,532.00
2023-05-11T01:17:05.385Z,533.00
2023-05-11T01:18:05.492Z,533.00
2023-05-11T01:19:05.564Z,533.00
2023-05-11T01:20:05.502Z,534.00
2023-05-11T01:21:05.542Z,534.00
2023-05-11T01:22:05.661Z,532.00
2023-05-11T01:23:05.663Z,532.00
2023-05-11T01:24:05.716Z,532.00
2023-05-11T01:25:05.764Z,531.00
2023-05-11T01:26:05.745Z,530.00
2023-05-11T01:27:05.752Z,529.00
2023-05-11T01:28:05.763Z,529.00
2023-05-11T01:29:05.789Z,530.00
2023-05-11T01:30:05.813Z,534.00
2023-05-11T01:31:05.819Z,533.00
2023-05-11T01:32:05.950Z,530.00
2023-05-11T01:33:05.868Z,529.00
2023-05-11T01:34:05.892Z,531.00
2023-05-11T01:35:05.899Z,531.00
2023-05-11T01:36:05.912Z,530.00
2023-05-11T01:37:05.933Z,528.00
2023-05-11T01:38:05.968Z,528.00
2023-05-11T01:39:05.968Z,529.00
2023-05-11T01:40:05.977Z,527.00
2023-05-11T01:41:05.973Z,525.00
2023-05-11T01:42:06.015Z,523.00
2023-05-11T01:43:06.018Z,522.00
2023-05-11T01:44:06.040Z,523.00
2023-05-11T01:45:06.023Z,523.00
2023-05-11T01:46:06.108Z,523.00
2023-05-11T01:47:06.055Z,522.00
2023-05-11T01:48:06.133Z,521.00
2023-05-11T01:49:06.069Z,522.00
2023-05-11T01:50:06.098Z,523.00
2023-05-11T01:51:06.091Z,523.00
2023-05-11T01:52:06.091Z,523.00
2023-05-11T01:53:06.141Z,521.00
2023-05-11T01:54:06.126Z,520.00
2023-05-11T01:55:06.142Z,522.00
2023-05-11T01:56:06.208Z,524.00
2023-05-11T01:57:06.139Z,526.00
2023-05-11T01:58:06.264Z,527.00
2023-05-11T01:59:06.238Z,526.00
2023-05-11T02:00:06.255Z,525.00
2023-05-11T02:01:06.338Z,525.00
2023-05-11T02:02:06.362Z,525.00
2023-05-11T02:03:06.507Z,523.00
2023-05-11T02:04:06.426Z,522.00
2023-05-11T02:05:06.462Z,524.00
2023-05-11T02:06:06.514Z,525.00
2023-05-11T02:07:06.567Z,525.00
2023-05-11T02:08:06.627Z,525.00
2023-05-11T02:09:06.644Z,526.00
2023-05-11T02:10:06.771Z,524.00
2023-05-11T02:11:06.744Z,523.00
2023-05-11T02:12:06.802Z,523.00
2023-05-11T02:13:06.833Z,521.00
2023-05-11T02:14:06.877Z,522.00
2023-05-11T02:15:06.931Z,522.00
2023-05-11T02:16:06.961Z,524.00
2023-05-11T02:17:06.989Z,524.00
2023-05-11T02:18:07.118Z,524.00
2023-05-11T02:19:07.129Z,523.00
2023-05-11T02:20:07.138Z,522.00
2023-05-11T02:21:07.167Z,524.00
2023-05-11T02:22:07.218Z,523.00
2023-05-11T02:23:07.251Z,526.00
2023-05-11T02:24:07.327Z,525.00
2023-05-11T02:25:07.345Z,524.00
2023-05-11T02:26:07.388Z,524.00
2023-05-11T02:27:07.425Z,524.00
2023-05-11T02:28:07.467Z,523.00
2023-05-11T02:29:07.516Z,524.00
2023-05-11T02:30:07.568Z,525.00
2023-05-11T02:31:07.623Z,524.00
2023-05-11T02:32:07.640Z,525.00
2023-05-11T02:33:07.753Z,525.00
2023-05-11T02:34:07.763Z,521.00
2023-05-11T02:35:07.785Z,521.00
2023-05-11T02:36:07.836Z,523.00
2023-05-11T02:37:07.864Z,524.00
2023-05-11T02:38:07.921Z,524.00
2023-05-11T02:39:07.963Z,521.00
2023-05-11T02:40:07.993Z,519.00
2023-05-11T02:41:08.033Z,521.00
2023-05-11T02:42:08.078Z,520.00
2023-05-11T02:43:08.132Z,521.00
2023-05-11T02:44:08.154Z,521.00
2023-05-11T02:45:08.223Z,523.00
2023-05-11T02:46:08.241Z,525.00
2023-05-11T02:47:08.328Z,525.00
2023-05-11T02:48:08.371Z,523.00
2023-05-11T02:49:08.397Z,525.00
2023-05-11T02:50:08.418Z,524.00
2023-05-11T02:51:08.464Z,521.00
2023-05-11T02:52:08.509Z,519.00
2023-05-11T02:53:08.557Z,518.00
2023-05-11T02:54:08.589Z,514.00
2023-05-11T02:55:08.631Z,514.00
2023-05-11T02:56:08.665Z,513.00
2023-05-11T02:57:08.699Z,512.00
2023-05-11T02:58:08.786Z,510.00
2023-05-11T02:59:08.787Z,510.00
2023-05-11T03:00:08.859Z,512.00
2023-05-11T03:01:09.018Z,511.00
2023-05-11T03:02:09.008Z,510.00
2023-05-11T03:03:09.060Z,509.00
2023-05-11T03:04:09.023Z,510.00
2023-05-11T03:05:09.081Z,510.00
2023-05-11T03:06:09.116Z,510.00
2023-05-11T03:07:09.159Z,511.00
2023-05-11T03:08:09.215Z,511.00
2023-05-11T03:09:10.285Z,512.00
2023-05-11T03:10:09.309Z,514.00
2023-05-11T03:11:09.356Z,513.00
2023-05-11T03:12:09.395Z,514.00
2023-05-11T03:13:09.445Z,513.00
2023-05-11T03:14:09.501Z,513.00
2023-05-11T03:15:09.532Z,516.00
2023-05-11T03:16:09.627Z,516.00
2023-05-11T03:17:09.623Z,518.00
2023-05-11T03:18:09.735Z,516.00
2023-05-11T03:19:09.725Z,518.00
2023-05-11T03:20:09.758Z,518.00
2023-05-11T03:21:09.850Z,516.00
2023-05-11T03:22:09.879Z,515.00
2023-05-11T03:23:09.916Z,517.00
2023-05-11T03:24:09.952Z,517.00
2023-05-11T03:25:09.997Z,517.00
2023-05-11T03:26:10.041Z,518.00
2023-05-11T03:27:10.091Z,517.00
2023-05-11T03:28:10.130Z,514.00
2023-05-11T03:29:10.178Z,513.00
2023-05-11T03:30:10.227Z,513.00
2023-05-11T03:31:10.289Z,512.00
2023-05-11T03:32:10.348Z,512.00
2023-05-11T03:33:10.425Z,513.00
2023-05-11T03:34:10.422Z,510.00
2023-05-11T03:35:10.456Z,511.00
2023-05-11T03:36:10.553Z,511.00
2023-05-11T03:37:10.575Z,512.00
2023-05-11T03:38:10.602Z,512.00
2023-05-11T03:39:10.639Z,511.00
2023-05-11T03:40:10.707Z,512.00
2023-05-11T03:41:10.745Z,513.00
2023-05-11T03:42:10.783Z,514.00
2023-05-11T03:43:10.947Z,513.00
2023-05-11T03:44:10.921Z,513.00
2023-05-11T03:45:10.954Z,513.00
2023-05-11T03:46:11.001Z,515.00
2023-05-11T03:47:11.024Z,515.00
2023-05-11T03:48:11.120Z,515.00
2023-05-11T03:49:13.574Z,515.00
2023-05-11T03:50:11.103Z,515.00
2023-05-11T03:51:11.137Z,517.00
2023-05-11T03:52:11.146Z,516.00
2023-05-11T03:53:11.144Z,516.00
2023-05-11T03:54:11.218Z,517.00
2023-05-11T03:55:11.176Z,517.00
2023-05-11T03:56:11.183Z,516.00
2023-05-11T03:57:11.252Z,515.00
2023-05-11T03:58:11.216Z,515.00
2023-05-11T03:59:11.238Z,515.00
2023-05-11T04:00:11.286Z,519.00
2023-05-11T04:01:11.252Z,521.00
2023-05-11T04:02:11.310Z,521.00
2023-05-11T04:03:11.398Z,518.00
2023-05-11T04:04:11.304Z,513.00
2023-05-11T04:05:11.323Z,512.00
2023-05-11T04:06:11.325Z,512.00
2023-05-11T04:07:11.367Z,516.00
2023-05-11T04:08:11.345Z,516.00
2023-05-11T04:09:11.361Z,516.00
2023-05-11T04:10:11.418Z,518.00
2023-05-11T04:11:11.383Z,519.00
2023-05-11T04:12:11.400Z,519.00
2023-05-11T04:13:11.415Z,517.00
2023-05-11T04:14:11.456Z,516.00
2023-05-11T04:15:11.466Z,518.00
2023-05-11T04:16:11.557Z,518.00
2023-05-11T04:17:11.474Z,519.00
2023-05-11T04:18:11.522Z,517.00
2023-05-11T04:19:11.515Z,517.00
2023-05-11T04:20:11.530Z,517.00
2023-05-11T04:21:11.535Z,518.00
2023-05-11T04:22:11.540Z,516.00
2023-05-11T04:23:11.563Z,515.00
2023-05-11T04:24:11.601Z,513.00
2023-05-11T04:25:11.573Z,513.00
2023-05-11T04:26:11.602Z,516.00
2023-05-11T04:27:11.600Z,518.00
2023-05-11T04:28:11.633Z,518.00
2023-05-11T04:29:11.643Z,518.00
2023-05-11T04:30:11.638Z,518.00
2023-05-11T04:31:11.841Z,518.00
2023-05-11T04:32:11.722Z,520.00
2023-05-11T04:33:11.726Z,519.00
2023-05-11T04:34:11.746Z,519.00
2023-05-11T04:35:12.103Z,520.00
2023-05-11T04:36:11.744Z,519.00
2023-05-11T04:37:11.808Z,518.00
2023-05-11T04:38:11.803Z,517.00
2023-05-11T04:39:11.793Z,514.00
2023-05-11T04:40:11.871Z,511.00
2023-05-11T04:41:11.832Z,512.00
2023-05-11T04:42:11.915Z,511.00
2023-05-11T04:43:12.162Z,513.00
2023-05-11T04:44:12.090Z,513.00
2023-05-11T04:45:12.121Z,516.00
2023-05-11T04:46:13.083Z,518.00
2023-05-11T04:47:12.315Z,518.00
2023-05-11T04:48:12.287Z,518.00
2023-05-11T04:49:12.321Z,519.00
2023-05-11T04:50:12.390Z,521.00
2023-05-11T04:51:12.428Z,521.00
2023-05-11T04:52:12.521Z,519.00
2023-05-11T04:53:12.567Z,520.00
2023-05-11T04:54:12.646Z,521.00
2023-05-11T04:55:12.784Z,527.00
2023-05-11T04:56:12.793Z,525.00
2023-05-11T04:57:12.868Z,525.00
2023-05-11T04:58:12.983Z,522.00
2023-05-11T04:59:12.996Z,521.00
2023-05-11T05:00:13.148Z,520.00
2023-05-11T05:01:13.212Z,518.00
2023-05-11T05:02:13.234Z,517.00
2023-05-11T05:03:13.294Z,518.00
2023-05-11T05:04:13.405Z,517.00
2023-05-11T05:05:13.463Z,515.00
2023-05-11T05:06:13.509Z,515.00
2023-05-11T05:07:13.588Z,513.00
2023-05-11T05:08:13.650Z,512.00
2023-05-11T05:09:13.731Z,512.00
2023-05-11T05:10:13.756Z,513.00
2023-05-11T05:11:13.747Z,513.00
2023-05-11T05:12:13.781Z,514.00
2023-05-11T05:13:13.783Z,515.00
2023-05-11T05:14:13.799Z,514.00
2023-05-11T05:15:13.833Z,513.00
2023-05-11T05:16:13.909Z,512.00
2023-05-11T05:17:13.994Z,512.00
2023-05-11T05:18:13.913Z,512.00
2023-05-11T05:19:13.881Z,513.00
2023-05-11T05:20:13.964Z,511.00
2023-05-11T05:21:13.964Z,511.00
2023-05-11T05:22:14.036Z,510.00
2023-05-11T05:23:14.093Z,510.00
2023-05-11T05:24:14.164Z,506.00
2023-05-11T05:25:14.186Z,510.00
2023-05-11T05:26:14.205Z,508.00
2023-05-11T05:27:14.201Z,509.00
2023-05-11T05:28:14.223Z,512.00
2023-05-11T05:29:14.256Z,513.00
2023-05-11T05:30:14.487Z,512.00
2023-05-11T05:31:14.340Z,513.00
2023-05-11T05:32:14.458Z,512.00
2023-05-11T05:33:14.440Z,515.00
2023-05-11T05:34:16.450Z,515.00
2023-05-11T05:35:14.373Z,587.00
2023-05-11T05:36:15.253Z,641.00
2023-05-11T05:37:14.514Z,675.00
2023-05-11T05:38:14.557Z,720.00
2023-05-11T05:39:14.616Z,749.00
2023-05-11T05:40:14.753Z,765.00
2023-05-11T05:41:14.704Z,810.00
2023-05-11T05:42:14.737Z,855.00
2023-05-11T05:43:14.778Z,854.00
2023-05-11T05:44:14.823Z,872.00
2023-05-11T05:45:15.101Z,928.00
2023-05-11T05:46:14.860Z,951.00
2023-05-11T05:47:14.834Z,845.00
2023-05-11T05:48:14.859Z,825.00
2023-05-11T05:49:15.125Z,803.00
2023-05-11T05:50:14.840Z,797.00
2023-05-11T05:51:14.856Z,800.00
2023-05-11T05:52:14.878Z,806.00
2023-05-11T05:53:14.876Z,796.00
2023-05-11T05:54:14.964Z,782.00
2023-05-11T05:55:14.909Z,772.00
2023-05-11T05:56:14.901Z,856.00
2023-05-11T05:57:15.914Z,904.00
2023-05-11T05:58:14.904Z,919.00
2023-05-11T05:59:14.848Z,914.00
2023-05-11T06:00:14.856Z,914.00
2023-05-11T06:01:14.860Z,910.00
2023-05-11T06:02:14.875Z,922.00
2023-05-11T06:03:14.951Z,846.00
2023-05-11T06:04:14.959Z,851.00
2023-05-11T06:05:14.863Z,850.00
2023-05-11T06:06:14.894Z,846.00
2023-05-11T06:07:14.851Z,861.00
2023-05-11T06:08:14.846Z,900.00
2023-05-11T06:09:14.848Z,907.00
2023-05-11T06:10:14.904Z,925.00
2023-05-11T06:11:14.869Z,878.00
2023-05-11T06:12:14.900Z,904.00
2023-05-11T06:13:14.878Z,917.00
2023-05-11T06:14:14.868Z,913.00
2023-05-11T06:15:14.877Z,918.00
2023-05-11T06:16:14.970Z,919.00
2023-05-11T06:17:14.896Z,910.00
2023-05-11T06:18:14.921Z,898.00
2023-05-11T06:19:14.916Z,889.00
2023-05-11T06:20:14.927Z,882.00
2023-05-11T06:21:14.903Z,877.00
2023-05-11T06:22:15.092Z,881.00
2023-05-11T06:23:14.942Z,928.00
2023-05-11T06:24:14.968Z,962.00
2023-05-11T06:25:14.989Z,983.00
2023-05-11T06:26:14.947Z,1005.00
2023-05-11T06:27:16.020Z,1027.00
2023-05-11T06:28:14.930Z,1077.00
2023-05-11T06:29:14.950Z,1089.00
2023-05-11T06:30:14.992Z,1119.00
2023-05-11T06:31:15.133Z,1159.00
2023-05-11T06:32:14.963Z,1181.00
2023-05-11T06:33:14.940Z,1207.00
2023-05-11T06:34:14.942Z,1228.00
2023-05-11T06:35:14.934Z,1249.00
2023-05-11T06:36:15.077Z,1264.00
2023-05-11T06:37:14.974Z,1278.00
2023-05-11T06:38:14.953Z,1296.00
2023-05-11T06:39:14.975Z,1309.00
2023-05-11T06:40:15.000Z,1328.00
2023-05-11T06:41:14.995Z,1351.00
2023-05-11T06:42:15.272Z,1378.00
2023-05-11T06:43:14.975Z,1405.00
2023-05-11T06:44:15.048Z,1414.00
2023-05-11T06:45:15.006Z,1395.00
2023-05-11T06:46:15.008Z,1373.00
2023-05-11T06:47:14.965Z,1381.00
2023-05-11T06:48:15.185Z,1460.00
2023-05-11T06:49:14.982Z,1506.00
2023-05-11T06:50:14.965Z,1388.00
2023-05-11T06:51:14.964Z,1426.00
2023-05-11T06:52:15.005Z,1481.00
2023-05-11T06:53:14.973Z,1476.00
2023-05-11T06:54:14.980Z,1441.00
2023-05-11T06:55:15.013Z,1441.00
2023-05-11T06:56:15.105Z,1452.00
2023-05-11T06:57:15.129Z,1456.00
2023-05-11T06:58:15.179Z,1461.00
2023-05-11T06:59:15.415Z,1470.00
2023-05-11T07:00:15.452Z,1472.00
2023-05-11T07:01:15.468Z,1478.00
2023-05-11T07:02:15.483Z,1484.00
2023-05-11T07:03:15.572Z,1488.00
2023-05-11T07:04:15.595Z,1485.00
2023-05-11T07:05:15.629Z,1483.00
2023-05-11T07:06:15.700Z,1490.00
2023-05-11T07:07:15.754Z,1508.00
2023-05-11T07:08:15.820Z,1504.00
2023-05-11T07:09:18.632Z,1516.00
2023-05-11T07:10:15.921Z,1521.00
2023-05-11T07:11:16.597Z,1519.00
2023-05-11T07:12:15.845Z,1528.00
2023-05-11T07:13:15.857Z,1546.00
2023-05-11T07:14:15.859Z,1551.00
2023-05-11T07:15:15.869Z,1557.00
2023-05-11T07:16:15.948Z,1564.00
2023-05-11T07:17:15.840Z,1568.00
2023-05-11T07:18:15.818Z,1572.00
2023-05-11T07:19:15.800Z,1576.00
2023-05-11T07:20:15.871Z,1583.00
2023-05-11T07:21:15.778Z,1575.00
2023-05-11T07:22:15.781Z,1570.00
2023-05-11T07:23:15.763Z,1570.00
2023-05-11T07:24:16.584Z,1564.00
2023-05-11T07:25:15.813Z,1560.00
2023-05-11T07:26:15.756Z,1554.00
2023-05-11T07:27:16.625Z,1554.00
2023-05-11T07:28:15.718Z,1555.00
2023-05-11T07:29:15.713Z,1559.00
2023-05-11T07:30:17.329Z,1566.00
2023-05-11T07:31:15.710Z,1563.00
2023-05-11T07:32:15.699Z,1564.00
2023-05-11T07:33:15.675Z,1562.00
2023-05-11T07:34:15.725Z,1565.00
2023-05-11T07:35:15.736Z,1574.00
2023-05-11T07:36:15.681Z,1576.00
2023-05-11T07:37:15.663Z,1581.00
2023-05-11T07:38:15.647Z,1643.00
2023-05-11T07:39:15.654Z,1609.00
2023-05-11T07:40:15.683Z,1621.00
2023-05-11T07:41:15.668Z,1625.00
2023-05-11T07:42:15.659Z,1591.00
2023-05-11T07:43:15.767Z,1530.00
2023-05-11T07:44:15.741Z,1521.00
2023-05-11T07:45:15.851Z,1530.00
2023-05-11T07:46:15.882Z,1590.00
2023-05-11T07:47:15.911Z,1572.00
2023-05-11T07:48:15.961Z,1535.00
2023-05-11T07:49:20.811Z,1512.00
2023-05-11T07:50:17.346Z,1508.00
2023-05-11T07:51:15.997Z,1537.00
2023-05-11T07:52:16.054Z,1560.00
2023-05-11T07:53:15.976Z,1574.00
2023-05-11T07:54:15.960Z,1572.00
2023-05-11T07:55:15.962Z,1569.00
2023-05-11T07:56:15.958Z,1563.00
2023-05-11T07:57:15.964Z,1560.00
2023-05-11T07:58:16.018Z,1554.00
2023-05-11T07:59:16.061Z,1543.00
2023-05-11T08:00:16.184Z,1536.00
2023-05-11T08:01:16.631Z,1548.00
2023-05-11T08:02:16.250Z,1533.00
2023-05-11T08:03:16.551Z,1530.00
2023-05-11T08:04:16.353Z,1535.00
2023-05-11T08:05:16.602Z,1537.00
2023-05-11T08:06:16.488Z,1538.00
2023-05-11T08:07:16.541Z,1536.00
2023-05-11T08:08:16.588Z,1529.00
2023-05-11T08:09:16.639Z,1530.00
2023-05-11T08:10:16.779Z,1520.00
2023-05-11T08:11:16.845Z,1476.00
2023-05-11T08:12:16.847Z,1490.00
2023-05-11T08:13:17.300Z,1519.00
2023-05-11T08:14:16.960Z,1521.00
2023-05-11T08:15:17.180Z,1521.00
2023-05-11T08:16:17.328Z,1527.00
2023-05-11T08:17:17.122Z,1524.00
2023-05-11T08:18:17.313Z,1513.00
2023-05-11T08:19:17.261Z,1516.00
2023-05-11T08:20:18.194Z,1516.00
2023-05-11T08:21:17.599Z,1520.00
2023-05-11T08:22:17.449Z,1527.00
2023-05-11T08:23:17.526Z,1532.00
2023-05-11T08:24:17.540Z,1531.00
2023-05-11T08:26:17.742Z,1510.00
2023-05-11T08:27:17.715Z,1505.00
2023-05-11T08:28:17.753Z,1501.00
2023-05-11T08:29:17.927Z,1502.00
2023-05-11T08:30:17.857Z,1558.00
2023-05-11T08:31:17.940Z,1585.00
2023-05-11T08:32:17.991Z,1584.00
2023-05-11T08:33:35.877Z,1564.00
2023-05-11T08:34:20.330Z,1552.00
2023-05-11T08:35:18.446Z,1514.00
2023-05-11T08:36:18.198Z,1493.00
2023-05-11T08:37:18.296Z,1488.00
2023-05-11T08:38:18.472Z,1480.00
2023-05-11T08:39:32.924Z,1470.00
2023-05-11T08:40:19.439Z,1462.00
2023-05-11T08:41:18.355Z,1457.00
2023-05-11T08:42:18.360Z,1457.00
2023-05-11T08:43:18.351Z,1451.00
2023-05-11T08:44:18.349Z,1449.00
2023-05-11T08:45:18.522Z,1448.00
2023-05-11T08:46:18.380Z,1440.00
2023-05-11T08:47:23.424Z,1449.00
2023-05-11T08:48:19.611Z,1051.00
2023-05-11T08:49:18.322Z,1245.00
2023-05-11T08:50:18.317Z,1285.00
2023-05-11T08:51:18.359Z,1330.00
2023-05-11T08:52:18.359Z,1358.00
2023-05-11T08:53:18.450Z,1373.00
2023-05-11T08:54:18.361Z,1376.00
2023-05-11T08:55:18.517Z,1381.00
2023-05-11T08:56:18.390Z,1389.00
2023-05-11T08:57:18.370Z,1396.00
2023-05-11T08:58:18.401Z,1406.00
2023-05-11T08:59:18.572Z,1415.00
2023-05-11T09:00:18.535Z,1422.00
2023-05-11T09:01:18.610Z,1429.00
2023-05-11T09:02:18.556Z,1427.00
2023-05-11T09:03:18.546Z,1431.00
2023-05-11T09:04:18.595Z,1441.00
2023-05-11T09:05:18.665Z,1450.00
2023-05-11T09:06:18.518Z,1455.00
2023-05-11T09:07:18.731Z,1462.00
2023-05-11T09:08:18.532Z,1469.00
2023-05-11T09:09:19.165Z,1477.00
2023-05-11T09:10:19.168Z,1489.00
2023-05-11T09:11:18.763Z,1498.00
2023-05-11T09:12:18.748Z,1509.00
2023-05-11T09:13:18.765Z,1517.00
2023-05-11T09:14:19.136Z,1524.00
2023-05-11T09:15:19.192Z,1527.00
2023-05-11T09:16:32.927Z,1534.00
2023-05-11T09:17:19.955Z,1540.00
2023-05-11T09:18:18.999Z,1542.00
2023-05-11T09:19:18.910Z,1548.00
2023-05-11T09:20:19.312Z,1556.00
2023-05-11T09:21:18.911Z,1557.00
2023-05-11T09:22:18.934Z,1557.00
2023-05-11T09:23:18.963Z,1561.00
2023-05-11T09:24:18.978Z,1566.00
2023-05-11T09:25:19.039Z,1570.00
2023-05-11T09:26:19.638Z,1572.00
2023-05-11T09:27:21.180Z,1576.00
2023-05-11T09:29:19.846Z,1590.00
2023-05-11T09:30:21.947Z,1595.00
2023-05-11T09:31:18.889Z,1601.00
2023-05-11T09:32:18.965Z,1608.00
2023-05-11T09:33:19.678Z,1610.00
2023-05-11T09:34:18.800Z,1615.00
2023-05-11T09:35:18.972Z,1620.00
2023-05-11T09:36:18.774Z,1624.00
2023-05-11T09:37:18.812Z,1627.00
2023-05-11T09:38:18.907Z,1627.00
2023-05-11T09:40:27.375Z,1632.00
2023-05-11T09:41:19.868Z,1681.00
2023-05-11T09:42:18.890Z,1703.00
2023-05-11T09:43:18.774Z,1676.00
2023-05-11T09:44:18.765Z,1651.00
2023-05-11T09:45:18.832Z,1611.00
2023-05-11T09:46:18.740Z,1586.00
2023-05-11T09:47:18.695Z,1576.00
2023-05-11T09:48:18.716Z,1566.00
2023-05-11T09:49:18.719Z,1550.00
2023-05-11T09:50:25.820Z,1533.00
2023-05-11T09:51:19.717Z,1512.00
2023-05-11T09:52:19.210Z,1493.00
2023-05-11T09:53:18.693Z,1473.00
2023-05-11T09:54:18.768Z,1452.00
2023-05-11T09:55:18.937Z,1432.00
2023-05-11T09:56:18.767Z,1420.00
2023-05-11T09:57:18.709Z,1408.00
2023-05-11T09:58:18.742Z,1397.00
2023-05-11T09:59:18.708Z,1382.00
2023-05-11T10:00:18.719Z,1367.00
2023-05-11T10:01:18.838Z,1351.00
2023-05-11T10:02:18.956Z,1333.00
2023-05-11T10:03:19.017Z,1290.00
2023-05-11T10:04:23.790Z,1278.00
2023-05-11T10:05:20.125Z,1265.00
2023-05-11T10:06:20.428Z,1256.00
2023-05-11T10:07:18.965Z,1245.00
2023-05-11T10:08:19.073Z,1226.00
2023-05-11T10:09:18.985Z,1211.00
2023-05-11T10:10:18.993Z,1201.00
2023-05-11T10:11:19.105Z,1191.00
2023-05-11T10:12:18.953Z,1170.00
2023-05-11T10:13:19.003Z,1157.00
2023-05-11T10:14:19.231Z,1149.00
2023-05-11T10:15:19.393Z,1140.00
2023-05-11T10:16:19.212Z,1133.00
2023-05-11T10:17:19.247Z,1124.00
2023-05-11T10:18:20.437Z,1113.00
2023-05-11T10:19:19.377Z,1105.00
2023-05-11T10:20:19.739Z,1099.00
2023-05-11T10:21:19.497Z,1090.00
2023-05-11T10:22:19.653Z,1081.00
2023-05-11T10:23:19.671Z,1069.00
2023-05-11T10:24:20.629Z,1060.00
2023-05-11T10:25:19.802Z,1056.00
2023-05-11T10:26:19.907Z,1044.00
2023-05-11T10:27:19.962Z,1038.00
2023-05-11T10:28:19.982Z,1035.00
2023-05-11T10:29:20.082Z,1031.00
2023-05-11T10:30:20.410Z,1033.00
2023-05-11T10:31:20.250Z,1030.00
2023-05-11T10:32:20.240Z,1026.00
2023-05-11T10:33:20.165Z,1032.00
2023-05-11T10:34:20.144Z,1031.00
2023-05-11T10:35:20.205Z,1023.00
2023-05-11T10:36:20.190Z,1017.00
2023-05-11T10:37:20.305Z,1013.00
2023-05-11T10:38:20.251Z,1012.00
2023-05-11T10:39:20.180Z,1009.00
2023-05-11T10:40:20.380Z,1009.00
2023-05-11T10:41:20.217Z,1003.00
2023-05-11T10:42:20.174Z,993.00
2023-05-11T10:43:20.206Z,988.00
2023-05-11T10:44:20.177Z,988.00
2023-05-11T10:45:20.189Z,992.00
2023-05-11T10:46:20.295Z,991.00
2023-05-11T10:47:20.412Z,982.00
2023-05-11T10:48:20.400Z,977.00
2023-05-11T10:49:20.433Z,970.00
2023-05-11T10:50:20.826Z,962.00
2023-05-11T10:51:20.601Z,961.00
2023-05-11T10:52:20.873Z,957.00
2023-05-11T10:53:20.695Z,951.00
2023-05-11T10:54:20.829Z,948.00
2023-05-11T10:55:20.976Z,947.00
2023-05-11T10:56:20.903Z,948.00
2023-05-11T10:57:21.034Z,947.00
2023-05-11T10:58:21.032Z,945.00
2023-05-11T10:59:21.126Z,943.00
2023-05-11T11:00:21.516Z,945.00
2023-05-11T11:01:21.255Z,943.00
2023-05-11T11:02:21.373Z,943.00
2023-05-11T11:03:21.389Z,938.00
2023-05-11T11:04:21.554Z,934.00
2023-05-11T11:05:21.798Z,934.00
2023-05-11T11:06:21.608Z,932.00
2023-05-11T11:07:21.795Z,930.00
2023-05-11T11:08:21.793Z,929.00
2023-05-11T11:09:21.866Z,927.00
2023-05-11T11:10:21.895Z,923.00
2023-05-11T11:11:22.278Z,919.00
2023-05-11T11:12:22.100Z,918.00
2023-05-11T11:13:22.696Z,916.00
2023-05-11T11:14:22.210Z,914.00
2023-05-11T11:15:22.349Z,912.00
2023-05-11T11:16:22.381Z,905.00
2023-05-11T11:17:22.481Z,903.00
2023-05-11T11:18:22.462Z,903.00
2023-05-11T11:19:22.406Z,904.00
2023-05-11T11:20:22.478Z,901.00
2023-05-11T11:21:23.559Z,900.00
2023-05-11T11:22:22.948Z,899.00
2023-05-11T11:23:22.453Z,896.00
2023-05-11T11:24:22.494Z,893.00
2023-05-11T11:25:22.467Z,891.00
2023-05-11T11:26:22.483Z,890.00
2023-05-11T11:27:23.857Z,883.00
2023-05-11T11:28:22.535Z,875.00
2023-05-11T11:29:22.569Z,871.00
2023-05-11T11:30:22.526Z,868.00
2023-05-11T11:31:22.775Z,866.00
2023-05-11T11:32:22.588Z,862.00
2023-05-11T11:33:23.229Z,858.00
2023-05-11T11:34:22.533Z,855.00
2023-05-11T11:35:22.550Z,852.00
2023-05-11T11:36:22.553Z,852.00
2023-05-11T11:37:22.562Z,851.00
2023-05-11T11:38:22.606Z,848.00
2023-05-11T11:39:22.580Z,846.00
2023-05-11T11:40:22.562Z,843.00
2023-05-11T11:41:22.583Z,835.00
2023-05-11T11:42:22.575Z,832.00
2023-05-11T11:43:22.609Z,827.00
2023-05-11T11:44:22.595Z,828.00
2023-05-11T11:45:22.598Z,829.00
2023-05-11T11:46:22.690Z,829.00
2023-05-11T11:47:22.629Z,821.00
2023-05-11T11:48:22.651Z,819.00
2023-05-11T11:49:22.652Z,818.00
2023-05-11T11:50:22.681Z,820.00
2023-05-11T11:51:22.680Z,818.00
2023-05-11T11:52:22.713Z,815.00
2023-05-11T11:53:22.698Z,815.00
2023-05-11T11:54:22.708Z,808.00
2023-05-11T11:55:22.721Z,807.00
2023-05-11T11:56:22.734Z,812.00
2023-05-11T11:57:22.759Z,810.00
2023-05-11T11:58:22.737Z,807.00
2023-05-11T11:59:22.739Z,806.00
2023-05-11T12:00:22.830Z,806.00
2023-05-11T12:01:22.775Z,806.00
2023-05-11T12:02:22.993Z,807.00
2023-05-11T12:03:22.966Z,808.00
2023-05-11T12:04:22.841Z,805.00
2023-05-11T12:05:23.188Z,801.00
2023-05-11T12:06:24.453Z,796.00
2023-05-11T12:07:22.824Z,796.00
2023-05-11T12:08:22.843Z,792.00
2023-05-11T12:09:22.892Z,791.00
2023-05-11T12:10:22.867Z,789.00
2023-05-11T12:11:22.876Z,786.00
2023-05-11T12:12:22.932Z,783.00
2023-05-11T12:13:22.910Z,778.00
2023-05-11T12:14:22.945Z,777.00
2023-05-11T12:15:22.918Z,777.00
2023-05-11T12:16:22.959Z,781.00
2023-05-11T12:17:22.953Z,779.00
2023-05-11T12:18:23.015Z,775.00
2023-05-11T12:19:22.955Z,771.00
2023-05-11T12:20:22.948Z,772.00
2023-05-11T12:21:22.998Z,773.00
2023-05-11T12:22:22.993Z,772.00
2023-05-11T12:23:22.982Z,775.00